createdAt,value
2023-04-17T00:01:27.858Z,14.98
2023-04-17T00:03:54.663Z,16.17
2023-04-17T00:06:21.415Z,15.55
2023-04-17T00:08:48.122Z,14.10
2023-04-17T00:11:15.262Z,14.43
2023-04-17T00:13:43.989Z,15.82
2023-04-17T00:16:12.607Z,15.77
2023-04-17T00:18:40.111Z,15.20
2023-04-17T00:21:06.757Z,14.38
2023-04-17T00:23:33.450Z,13.88
2023-04-17T00:26:00.113Z,15.48
2023-04-17T00:28:27.676Z,15.35
2023-04-17T00:30:54.965Z,14.63
2023-04-17T00:33:21.798Z,14.80
2023-04-17T00:35:48.511Z,15.98
2023-04-17T00:38:15.689Z,15.25
2023-04-17T00:40:42.801Z,13.98
2023-04-17T00:43:09.645Z,15.75
2023-04-17T00:45:36.400Z,15.70
2023-04-17T00:48:05.718Z,16.67
2023-04-17T00:50:32.976Z,15.15
2023-04-17T00:53:00.764Z,14.50
2023-04-17T00:55:32.234Z,15.32
2023-04-17T00:58:00.492Z,13.68
2023-04-17T01:00:27.765Z,14.73
2023-04-17T01:02:57.256Z,15.35
2023-04-17T01:05:25.662Z,14.05
2023-04-17T01:07:52.591Z,14.30
2023-04-17T01:10:19.677Z,14.00
2023-04-17T01:12:49.113Z,15.55
2023-04-17T01:15:16.306Z,14.25
2023-04-17T01:17:43.039Z,14.15
2023-04-17T01:20:11.959Z,14.73
2023-04-17T01:22:38.616Z,13.82
2023-04-17T01:25:05.997Z,14.75
2023-04-17T01:27:35.845Z,13.48
2023-04-17T01:30:02.722Z,13.30
2023-04-17T01:32:32.432Z,13.88
2023-04-17T01:34:59.950Z,12.88
2023-04-17T01:37:27.280Z,12.85
2023-04-17T01:39:55.510Z,14.00
2023-04-17T01:42:22.433Z,14.48
2023-04-17T01:44:49.098Z,14.00
2023-04-17T01:47:15.847Z,13.75
2023-04-17T01:49:44.686Z,14.27
2023-04-17T01:52:11.336Z,14.02
2023-04-17T01:54:37.953Z,13.90
2023-04-17T01:57:04.651Z,12.88
2023-04-17T01:59:31.321Z,13.30
2023-04-17T02:01:58.122Z,12.63
2023-04-17T02:04:24.955Z,12.40
2023-04-17T02:06:52.270Z,12.85
2023-04-17T02:09:19.030Z,14.48
2023-04-17T02:11:45.764Z,12.82
2023-04-17T02:14:12.418Z,13.52
2023-04-17T02:16:39.931Z,12.63
2023-04-17T02:19:06.596Z,12.13
2023-04-17T02:21:33.257Z,12.50
2023-04-17T02:23:59.936Z,12.95
2023-04-17T02:26:28.166Z,13.20
2023-04-17T02:28:55.002Z,12.63
2023-04-17T02:31:22.131Z,12.70
2023-04-17T02:33:48.858Z,12.48
2023-04-17T02:36:16.666Z,12.70
2023-04-17T02:38:44.684Z,12.57
2023-04-17T02:41:13.241Z,12.48
2023-04-17T02:43:40.838Z,12.02
2023-04-17T02:46:07.496Z,12.48
2023-04-17T02:48:34.226Z,13.68
2023-04-17T02:51:00.933Z,13.40
2023-04-17T02:53:29.207Z,12.52
2023-04-17T02:55:55.878Z,12.30
2023-04-17T02:58:24.326Z,11.77
2023-04-17T03:00:51.227Z,12.30
2023-04-17T03:03:19.390Z,11.77
2023-04-17T03:05:46.419Z,12.52
2023-04-17T03:08:13.061Z,12.73
2023-04-17T03:10:44.878Z,12.02
2023-04-17T03:13:11.900Z,11.98
2023-04-17T03:15:38.570Z,11.77
2023-04-17T03:18:05.443Z,12.73
2023-04-17T03:20:32.423Z,12.07
2023-04-17T03:22:59.095Z,11.35
2023-04-17T03:25:26.128Z,13.27
2023-04-17T03:27:53.264Z,13.07
2023-04-17T03:30:24.015Z,13.02
2023-04-17T03:32:52.522Z,12.05
2023-04-17T03:35:19.273Z,11.57
2023-04-17T03:37:46.014Z,10.05
2023-04-17T03:40:13.744Z,11.18
2023-04-17T03:42:43.603Z,11.50
2023-04-17T03:45:11.021Z,12.43
2023-04-17T03:47:38.535Z,11.55
2023-04-17T03:50:06.490Z,11.77
2023-04-17T03:52:38.644Z,12.32
2023-04-17T03:55:06.286Z,11.40
2023-04-17T03:57:33.158Z,12.05
2023-04-17T03:59:59.925Z,11.32
2023-04-17T04:02:34.539Z,11.30
2023-04-17T04:05:02.277Z,11.15
2023-04-17T04:07:29.530Z,11.02
2023-04-17T04:09:56.667Z,11.52
2023-04-17T04:12:23.828Z,11.02
2023-04-17T04:14:50.561Z,12.05
2023-04-17T04:17:17.891Z,12.43
2023-04-17T04:19:44.658Z,12.05
2023-04-17T04:22:13.647Z,11.82
2023-04-17T04:24:53.686Z,13.35
2023-04-17T04:27:27.536Z,12.48
2023-04-17T04:29:59.041Z,13.70
2023-04-17T04:32:28.409Z,12.25
2023-04-17T04:34:58.309Z,12.82
2023-04-17T04:37:29.991Z,12.13
2023-04-17T04:40:10.597Z,11.40
2023-04-17T04:42:42.013Z,12.82
2023-04-17T04:45:18.714Z,11.07
2023-04-17T04:47:46.090Z,10.52
2023-04-17T04:50:13.174Z,12.48
2023-04-17T04:52:40.698Z,12.13
2023-04-17T04:55:30.597Z,12.90
2023-04-17T04:57:57.608Z,12.00
2023-04-17T05:00:26.302Z,12.60
2023-04-17T05:02:56.155Z,12.10
2023-04-17T05:05:25.429Z,12.88
2023-04-17T05:07:54.893Z,13.30
2023-04-17T05:10:24.465Z,13.77
2023-04-17T05:12:56.693Z,12.93
2023-04-17T05:15:23.494Z,13.18
2023-04-17T05:17:50.580Z,13.30
2023-04-17T05:20:18.771Z,12.43
2023-04-17T05:22:50.109Z,12.30
2023-04-17T05:25:16.969Z,12.10
2023-04-17T05:27:43.753Z,14.20
2023-04-17T05:30:12.634Z,12.50
2023-04-17T05:32:41.090Z,12.48
2023-04-17T05:35:23.172Z,11.60
2023-04-17T05:37:51.133Z,12.15
2023-04-17T05:40:18.098Z,12.57
2023-04-17T05:42:44.899Z,13.45
2023-04-17T05:45:18.337Z,12.77
2023-04-17T05:47:45.486Z,12.35
2023-04-17T05:50:12.348Z,11.85
2023-04-17T05:52:39.941Z,11.43
2023-04-17T05:55:09.735Z,12.82
2023-04-17T05:57:37.341Z,13.52
2023-04-17T06:00:10.439Z,12.07
2023-04-17T06:02:43.121Z,12.45
2023-04-17T06:05:16.409Z,11.65
2023-04-17T06:07:44.051Z,12.43
2023-04-17T06:10:10.972Z,12.55
2023-04-17T06:12:43.553Z,13.23
2023-04-17T06:15:12.476Z,12.27
2023-04-17T06:17:40.024Z,11.50
2023-04-17T06:20:10.453Z,12.40
2023-04-17T06:22:38.385Z,12.80
2023-04-17T06:25:05.721Z,13.13
2023-04-17T06:27:33.867Z,12.27
2023-04-17T06:30:03.492Z,12.95
2023-04-17T06:32:33.956Z,12.43
2023-04-17T06:35:01.014Z,11.55
2023-04-17T06:40:12.251Z,12.05
2023-04-17T06:42:39.932Z,11.25
2023-04-17T06:45:11.747Z,11.97
2023-04-17T06:47:38.482Z,12.15
2023-04-17T06:50:06.152Z,10.80
2023-04-17T06:52:34.478Z,13.85
2023-04-17T06:55:02.276Z,12.27
2023-04-17T06:57:29.127Z,11.93
2023-04-17T06:59:55.753Z,12.32
2023-04-17T07:02:22.583Z,13.40
2023-04-17T07:04:49.613Z,11.65
2023-04-17T07:07:16.440Z,12.38
2023-04-17T07:09:44.036Z,11.38
2023-04-17T07:12:10.858Z,11.35
2023-04-17T07:14:38.247Z,11.23
2023-04-17T07:17:05.924Z,10.73
2023-04-17T07:19:35.697Z,11.50
2023-04-17T07:22:02.675Z,11.15
2023-04-17T07:24:29.367Z,11.05
2023-04-17T07:26:56.954Z,10.65
2023-04-17T07:29:23.630Z,11.13
2023-04-17T07:31:50.581Z,10.00
2023-04-17T07:34:17.252Z,10.18
2023-04-17T07:36:44.154Z,9.18
2023-04-17T07:39:11.065Z,9.93
2023-04-17T07:41:38.555Z,9.02
2023-04-17T07:44:06.044Z,9.48
2023-04-17T07:46:32.906Z,9.80
2023-04-17T07:48:59.638Z,9.90
2023-04-17T07:51:26.352Z,8.75
2023-04-17T07:53:53.225Z,8.45
2023-04-17T07:56:19.903Z,8.43
2023-04-17T07:58:46.565Z,8.43
2023-04-17T08:01:13.572Z,8.70
2023-04-17T08:03:41.570Z,7.90
2023-04-17T08:06:08.697Z,7.90
2023-04-17T08:08:35.445Z,7.95
2023-04-17T08:11:02.562Z,7.25
2023-04-17T08:13:32.514Z,7.28
2023-04-17T08:15:59.564Z,7.20
2023-04-17T08:18:26.293Z,8.10
2023-04-17T08:20:53.100Z,8.00
2023-04-17T08:23:19.837Z,7.43
2023-04-17T08:25:46.676Z,8.35
2023-04-17T08:28:13.388Z,6.75
2023-04-17T08:30:40.049Z,6.93
2023-04-17T08:33:06.836Z,6.82
2023-04-17T08:35:33.596Z,6.50
2023-04-17T08:38:00.377Z,6.28
2023-04-17T08:40:27.900Z,6.22
2023-04-17T08:42:54.638Z,6.00
2023-04-17T08:45:24.248Z,6.80
2023-04-17T08:47:51.201Z,6.22
2023-04-17T08:50:19.662Z,6.50
2023-04-17T08:52:48.982Z,6.85
2023-04-17T08:55:18.128Z,6.70
2023-04-17T08:58:03.509Z,6.60
2023-04-17T09:00:35.088Z,6.78
2023-04-17T09:03:04.916Z,5.45
2023-04-17T09:05:38.722Z,6.10
2023-04-17T09:08:20.688Z,6.97
2023-04-17T09:10:52.765Z,6.72
2023-04-17T09:13:25.557Z,5.75
2023-04-17T09:16:06.099Z,6.47
2023-04-17T09:18:34.312Z,7.07
2023-04-17T09:21:02.142Z,6.68
2023-04-17T09:23:31.114Z,6.40
2023-04-17T09:26:15.024Z,6.80
2023-04-17T09:28:59.644Z,6.65
2023-04-17T09:31:28.145Z,5.95
2023-04-17T09:34:08.267Z,7.07
2023-04-17T09:36:39.595Z,7.18
2023-04-17T09:39:25.545Z,5.60
2023-04-17T09:42:03.787Z,6.00
2023-04-17T09:44:31.135Z,6.10
2023-04-17T09:46:58.762Z,6.20
2023-04-17T09:49:37.589Z,6.70
2023-04-17T09:52:04.373Z,6.10
2023-04-17T09:54:31.294Z,5.68
2023-04-17T09:57:00.531Z,5.60
2023-04-17T09:59:28.693Z,5.93
2023-04-17T10:01:55.649Z,5.45
2023-04-17T10:04:22.832Z,6.38
2023-04-17T10:06:51.930Z,6.45
2023-04-17T10:09:18.767Z,5.90
2023-04-17T10:11:46.949Z,6.57
2023-04-17T10:14:32.585Z,6.22
2023-04-17T10:16:59.790Z,5.63
2023-04-17T10:19:34.150Z,4.80
2023-04-17T10:22:16.283Z,6.10
2023-04-17T10:24:43.895Z,6.38
2023-04-17T10:27:26.204Z,5.82
2023-04-17T10:29:54.441Z,5.43
2023-04-17T10:32:24.089Z,5.65
2023-04-17T10:35:14.577Z,5.82
2023-04-17T10:37:50.219Z,6.45
2023-04-17T10:40:24.446Z,6.78
2023-04-17T10:43:07.824Z,7.13
2023-04-17T10:46:08.774Z,5.68
2023-04-17T10:48:39.196Z,6.10
2023-04-17T10:51:24.534Z,5.57
2023-04-17T10:53:59.817Z,6.40
2023-04-17T10:56:40.299Z,6.95
2023-04-17T10:59:09.637Z,5.88
2023-04-17T11:01:48.575Z,5.30
2023-04-17T11:04:22.772Z,6.32
2023-04-17T11:06:54.001Z,6.05
2023-04-17T11:09:22.023Z,6.75
2023-04-17T11:11:48.770Z,5.32
2023-04-17T11:14:18.362Z,6.00
2023-04-17T11:16:48.436Z,6.20
2023-04-17T11:19:21.306Z,5.95
2023-04-17T11:21:50.305Z,5.25
2023-04-17T11:24:26.993Z,5.38
2023-04-17T11:26:54.789Z,6.30
2023-04-17T11:29:23.135Z,5.90
2023-04-17T11:31:52.226Z,5.93
2023-04-17T11:34:19.342Z,6.03
2023-04-17T11:36:57.323Z,5.75
2023-04-17T11:39:30.504Z,5.40
2023-04-17T11:41:57.924Z,5.40
2023-04-17T11:44:25.771Z,5.57
2023-04-17T11:46:54.290Z,6.47
2023-04-17T11:49:32.416Z,5.97
2023-04-17T11:52:04.393Z,5.55
2023-04-17T11:54:38.370Z,6.60
2023-04-17T11:57:15.534Z,5.30
2023-04-17T11:59:42.739Z,5.35
2023-04-17T12:02:10.059Z,6.35
2023-04-17T12:04:39.418Z,5.50
2023-04-17T12:07:07.998Z,5.03
2023-04-17T12:09:35.838Z,5.72
2023-04-17T12:12:07.259Z,5.53
2023-04-17T12:14:34.487Z,4.97
2023-04-17T12:17:02.264Z,5.38
2023-04-17T12:19:29.598Z,4.82
2023-04-17T12:21:57.180Z,5.32
2023-04-17T12:24:25.109Z,4.88
2023-04-17T12:26:52.902Z,5.05
2023-04-17T12:29:26.505Z,5.57
2023-04-17T12:31:59.669Z,5.25
2023-04-17T12:34:27.782Z,5.95
2023-04-17T12:36:54.791Z,4.97
2023-04-17T12:39:21.468Z,5.80
2023-04-17T12:41:48.164Z,4.78
2023-04-17T12:44:14.994Z,5.65
2023-04-17T12:46:42.041Z,5.72
2023-04-17T12:49:09.052Z,4.47
2023-04-17T12:51:37.949Z,4.95
2023-04-17T12:54:04.972Z,5.25
2023-04-17T12:56:32.117Z,5.47
2023-04-17T12:59:01.309Z,5.85
2023-04-17T13:01:29.751Z,5.40
2023-04-17T13:03:56.676Z,6.30
2023-04-17T13:06:23.681Z,6.45
2023-04-17T13:08:50.391Z,5.82
2023-04-17T13:11:17.238Z,6.10
2023-04-17T13:13:43.888Z,5.75
2023-04-17T13:16:10.583Z,6.07
2023-04-17T13:18:37.567Z,4.97
2023-04-17T13:21:04.380Z,5.63
2023-04-17T13:23:31.213Z,4.72
2023-04-17T13:25:57.963Z,4.82
2023-04-17T13:28:24.659Z,5.72
2023-04-17T13:30:52.605Z,4.60
2023-04-17T13:33:19.310Z,4.90
2023-04-17T13:35:45.983Z,4.78
2023-04-17T13:38:12.709Z,4.70
2023-04-17T13:40:40.792Z,4.40
2023-04-17T13:43:07.509Z,5.00
2023-04-17T13:45:34.230Z,4.55
2023-04-17T13:48:01.275Z,4.30
2023-04-17T13:50:28.094Z,5.22
2023-04-17T13:52:54.785Z,5.07
2023-04-17T13:55:21.418Z,4.68
2023-04-17T13:57:48.116Z,4.28
2023-04-17T14:00:15.263Z,3.88
2023-04-17T14:02:42.697Z,4.53
2023-04-17T14:05:10.000Z,4.32
2023-04-17T14:07:37.700Z,5.03
2023-04-17T14:10:04.727Z,4.63
2023-04-17T14:12:31.398Z,4.35
2023-04-17T14:14:58.324Z,4.72
2023-04-17T14:17:25.471Z,5.18
2023-04-17T14:19:52.906Z,4.80
2023-04-17T14:22:20.058Z,5.18
2023-04-17T14:24:46.749Z,5.30
2023-04-17T14:27:13.421Z,5.28
2023-04-17T14:29:40.111Z,4.57
2023-04-17T14:32:06.827Z,5.10
2023-04-17T14:34:33.521Z,5.60
2023-04-17T14:37:00.261Z,5.45
2023-04-17T14:39:30.132Z,4.88
2023-04-17T14:41:59.584Z,5.53
2023-04-17T14:44:27.980Z,4.90
2023-04-17T14:46:56.648Z,4.47
2023-04-17T14:49:23.550Z,4.07
2023-04-17T14:51:50.246Z,4.78
2023-04-17T14:54:16.919Z,4.38
2023-04-17T14:56:43.587Z,4.80
2023-04-17T14:59:10.959Z,4.68
2023-04-17T15:01:37.884Z,5.20
2023-04-17T15:04:05.092Z,4.57
2023-04-17T15:06:32.147Z,5.20
2023-04-17T15:08:58.859Z,4.50
2023-04-17T15:11:25.741Z,4.32
2023-04-17T15:13:52.415Z,5.10
2023-04-17T15:16:19.120Z,5.35
2023-04-17T15:18:45.808Z,5.07
2023-04-17T15:21:15.556Z,5.25
2023-04-17T15:23:42.302Z,5.45
2023-04-17T15:26:09.200Z,4.82
2023-04-17T15:28:36.810Z,4.70
2023-04-17T15:31:03.540Z,4.80
2023-04-17T15:33:30.718Z,5.20
2023-04-17T15:35:58.615Z,4.60
2023-04-17T15:38:25.842Z,5.80
2023-04-17T15:40:52.674Z,4.80
2023-04-17T15:43:19.608Z,5.68
2023-04-17T15:45:48.827Z,5.00
2023-04-17T15:48:15.862Z,5.40
2023-04-17T15:50:43.022Z,5.28
2023-04-17T15:53:09.761Z,5.30
2023-04-17T15:55:36.770Z,4.72
2023-04-17T15:58:03.614Z,4.50
2023-04-17T16:00:30.556Z,4.38
2023-04-17T16:02:57.407Z,4.60
2023-04-17T16:05:24.160Z,4.93
2023-04-17T16:07:50.926Z,4.80
2023-04-17T16:10:18.845Z,5.25
2023-04-17T16:12:46.130Z,4.13
2023-04-17T16:15:16.384Z,4.05
2023-04-17T16:17:43.666Z,4.00
2023-04-17T16:20:11.044Z,3.60
2023-04-17T16:22:37.869Z,3.92
2023-04-17T16:25:05.047Z,3.95
2023-04-17T16:27:32.535Z,4.15
2023-04-17T16:29:59.866Z,3.55
2023-04-17T16:32:27.251Z,4.32
2023-04-17T16:34:54.038Z,4.30
2023-04-17T16:37:20.788Z,3.85
2023-04-17T16:39:47.493Z,4.30
2023-04-17T16:42:14.581Z,3.58
2023-04-17T16:44:41.440Z,3.85
2023-04-17T16:47:13.438Z,4.65
2023-04-17T16:49:41.187Z,4.20
2023-04-17T16:52:07.859Z,3.60
2023-04-17T16:54:34.834Z,4.20
2023-04-17T16:57:02.164Z,4.35
2023-04-17T16:59:28.897Z,5.28
2023-04-17T17:01:55.634Z,4.50
2023-04-17T17:04:22.384Z,4.32
2023-04-17T17:06:49.123Z,4.43
2023-04-17T17:09:15.901Z,4.15
2023-04-17T17:11:42.625Z,4.10
2023-04-17T17:14:09.344Z,3.45
2023-04-17T17:16:36.695Z,3.30
2023-04-17T17:19:03.702Z,3.60
2023-04-17T17:21:31.019Z,3.45
2023-04-17T17:23:57.836Z,3.63
2023-04-17T17:26:25.008Z,4.03
2023-04-17T17:28:53.226Z,3.67
2023-04-17T17:31:20.676Z,4.03
2023-04-17T17:33:50.410Z,4.05
2023-04-17T17:36:17.451Z,3.33
2023-04-17T17:38:44.591Z,3.40
2023-04-17T17:41:11.379Z,3.92
2023-04-17T17:43:38.028Z,4.15
2023-04-17T17:46:04.710Z,3.55
2023-04-17T17:48:31.425Z,4.25
2023-04-17T17:50:58.185Z,3.67
2023-04-17T17:53:26.972Z,4.22
2023-04-17T17:55:55.680Z,4.07
2023-04-17T17:58:22.769Z,3.08
2023-04-17T18:00:50.083Z,4.72
2023-04-17T18:03:17.731Z,3.78
2023-04-17T18:05:46.421Z,3.75
2023-04-17T18:08:13.789Z,3.35
2023-04-17T18:10:40.487Z,3.60
2023-04-17T18:13:07.128Z,3.58
2023-04-17T18:15:33.872Z,3.92
2023-04-17T18:18:00.742Z,4.13
2023-04-17T18:20:27.732Z,3.67
2023-04-17T18:22:54.394Z,3.92
2023-04-17T18:25:21.075Z,4.30
2023-04-17T18:27:47.764Z,4.07
2023-04-17T18:30:15.174Z,4.22
2023-04-17T18:32:41.968Z,3.75
2023-04-17T18:35:08.969Z,3.90
2023-04-17T18:37:35.774Z,4.40
2023-04-17T18:40:03.177Z,3.30
2023-04-17T18:42:29.877Z,3.22
2023-04-17T18:44:56.593Z,3.83
2023-04-17T18:47:23.281Z,3.42
2023-04-17T18:49:52.964Z,4.13
2023-04-17T18:52:19.844Z,3.08
2023-04-17T18:54:46.535Z,3.47
2023-04-17T18:57:13.190Z,3.28
2023-04-17T18:59:42.012Z,3.03
2023-04-17T19:02:09.892Z,3.53
2023-04-17T19:04:36.653Z,3.50
2023-04-17T19:07:03.328Z,3.53
2023-04-17T19:09:30.097Z,3.85
2023-04-17T19:11:57.416Z,3.55
2023-04-17T19:14:24.642Z,3.22
2023-04-17T19:16:51.875Z,3.33
2023-04-17T19:19:18.652Z,4.00
2023-04-17T19:21:45.369Z,2.70
2023-04-17T19:24:12.155Z,3.38
2023-04-17T19:26:38.841Z,3.08
2023-04-17T19:29:05.647Z,3.03
2023-04-17T19:31:33.021Z,3.63
2023-04-17T19:34:00.313Z,3.20
2023-04-17T19:36:28.136Z,3.80
2023-04-17T19:38:55.860Z,3.55
2023-04-17T19:41:22.560Z,3.60
2023-04-17T19:43:53.555Z,3.55
2023-04-17T19:46:21.970Z,4.18
2023-04-17T19:48:49.440Z,3.92
2023-04-17T19:51:16.845Z,3.63
2023-04-17T19:53:44.856Z,3.97
2023-04-17T19:56:11.596Z,3.58
2023-04-17T19:58:40.700Z,3.97
2023-04-17T20:01:07.650Z,3.75
2023-04-17T20:03:35.425Z,3.92
2023-04-17T20:06:03.390Z,3.58
2023-04-17T20:08:30.250Z,3.42
2023-04-17T20:10:56.890Z,3.33
2023-04-17T20:13:23.555Z,3.53
2023-04-17T20:15:50.309Z,3.08
2023-04-17T20:18:17.654Z,4.30
2023-04-17T20:20:44.362Z,3.78
2023-04-17T20:23:11.058Z,3.15
2023-04-17T20:25:37.745Z,3.15
2023-04-17T20:28:04.758Z,3.50
2023-04-17T20:30:31.575Z,3.03
2023-04-17T20:32:58.441Z,3.78
2023-04-17T20:35:25.219Z,3.45
2023-04-17T20:37:52.414Z,4.03
2023-04-17T20:40:19.752Z,3.63
2023-04-17T20:42:47.356Z,3.28
2023-04-17T20:45:14.294Z,2.92
2023-04-17T20:47:55.899Z,3.28
2023-04-17T20:50:24.565Z,3.00
2023-04-17T20:52:51.284Z,3.03
2023-04-17T20:55:19.704Z,3.35
2023-04-17T20:57:46.801Z,3.15
2023-04-17T21:00:14.068Z,3.85
2023-04-17T21:02:40.971Z,3.63
2023-04-17T21:05:09.028Z,3.67
2023-04-17T21:07:36.194Z,3.85
2023-04-17T21:10:02.972Z,3.60
2023-04-17T21:12:29.802Z,2.90
2023-04-17T21:14:56.439Z,3.35
2023-04-17T21:17:23.233Z,3.58
2023-04-17T21:19:50.037Z,3.63
2023-04-17T21:22:16.786Z,3.83
2023-04-17T21:24:43.546Z,3.95
2023-04-17T21:27:10.407Z,2.55
2023-04-17T21:29:37.513Z,3.55
2023-04-17T21:32:04.353Z,3.22
2023-04-17T21:34:31.094Z,3.00
2023-04-17T21:37:02.180Z,3.10
2023-04-17T21:39:32.284Z,3.17
2023-04-17T21:41:59.755Z,3.15
2023-04-17T21:44:26.445Z,2.78
2023-04-17T21:46:53.288Z,2.67
2023-04-17T21:49:20.711Z,2.67
2023-04-17T21:51:47.346Z,2.90
2023-04-17T21:54:14.152Z,2.67
2023-04-17T21:56:41.183Z,2.75
2023-04-17T21:59:07.853Z,3.00
2023-04-17T22:01:34.543Z,2.63
2023-04-17T22:04:02.199Z,2.83
2023-04-17T22:06:28.887Z,2.80
2023-04-17T22:08:55.706Z,3.03
2023-04-17T22:11:23.014Z,2.60
2023-04-17T22:13:49.790Z,3.10
2023-04-17T22:16:16.490Z,2.35
2023-04-17T22:18:43.476Z,2.60
2023-04-17T22:21:12.317Z,2.47
2023-04-17T22:23:39.119Z,2.70
2023-04-17T22:26:05.872Z,2.83
2023-04-17T22:28:32.532Z,3.10
2023-04-17T22:30:59.576Z,3.00
2023-04-17T22:33:26.479Z,2.42
2023-04-17T22:35:53.403Z,2.75
2023-04-17T22:38:21.142Z,2.85
2023-04-17T22:40:48.453Z,2.70
2023-04-17T22:43:15.392Z,2.85
2023-04-17T22:45:42.407Z,2.90
2023-04-17T22:48:09.134Z,3.30
2023-04-17T22:50:37.790Z,3.08
2023-04-17T22:53:04.942Z,2.92
2023-04-17T22:55:31.699Z,3.00
2023-04-17T22:57:59.806Z,2.78
2023-04-17T23:00:26.552Z,3.17
2023-04-17T23:02:53.378Z,3.17
2023-04-17T23:05:20.226Z,2.90
2023-04-17T23:07:47.109Z,3.22
2023-04-17T23:10:13.788Z,3.17
2023-04-17T23:12:40.600Z,3.67
2023-04-17T23:15:08.295Z,3.78
2023-04-17T23:17:35.100Z,3.33
2023-04-17T23:20:02.238Z,3.03
2023-04-17T23:22:28.964Z,3.58
2023-04-17T23:24:56.793Z,2.47
2023-04-17T23:27:23.499Z,3.05
2023-04-17T23:29:50.507Z,3.25
2023-04-17T23:32:17.190Z,2.75
2023-04-17T23:34:43.886Z,3.00
2023-04-17T23:37:10.879Z,3.67
2023-04-17T23:39:37.505Z,2.85
2023-04-17T23:42:07.205Z,3.10
2023-04-17T23:44:36.730Z,2.80
2023-04-17T23:47:03.825Z,2.58
2023-04-17T23:49:30.828Z,3.38
2023-04-17T23:51:57.514Z,3.15
2023-04-17T23:54:24.317Z,3.13
2023-04-17T23:56:51.041Z,2.85
2023-04-17T23:59:18.007Z,2.50
